Погода Данильцевона неделю

Смоленская область, Россия

27 мая-02 июня
  • 27мая
    Сегодня
    +10°
    +25°
    Небольшая облачность
    ВремяПогодаТемператураВлажностьДавлениеВетер, м/сВероятность осадков
    00:00Ясно и безоблачно+13°C87 %754 мм0.4 м/с2 %
    03:00Практически безоблачно+12°C90 %754 мм0.9 м/с2 %
    06:00Ясно и безоблачно+12°C72 %755 мм0.7 м/с2 %
    09:00Ясно и безоблачно+19°C50 %755 мм1.4 м/с2 %
    12:00Практически безоблачно+23°C39 %755 мм1.6 м/с2 %
    15:00Небольшая облачность+25°C32 %754 мм1.3 м/с2 %
    18:00Ясно и безоблачно+24°C33 %753 мм1.2 м/с2 %
    21:00Ясно и безоблачно+18°C47 %753 мм0.8 м/с2 %
  • 28мая
    Вторник
    +12°
    +28°
    Практически безоблачно
    ВремяПогодаТемператураВлажностьДавлениеВетер, м/сВероятность осадков
    00:00Ясно и безоблачно+13°C57 %753 мм0.5 м/с2 %
    03:00Ясно и безоблачно+12°C66 %753 мм0.6 м/с2 %
    06:00Ясно и безоблачно+12°C69 %753 мм0.4 м/с2 %
    09:00Ясно и безоблачно+21°C48 %753 мм1.1 м/с2 %
    12:00Ясно и безоблачно+25°C35 %752 мм1.4 м/с2 %
    15:00Практически безоблачно+26°C30 %751 мм0.3 м/с2 %
    18:00Облачно с прояснениями+26°C30 %750 мм1.3 м/с2 %
    21:00Практически безоблачно+19°C55 %750 мм0.5 м/с2 %
  • 29мая
    Среда
    +12°
    +27°
    Практически безоблачно
    ВремяПогодаТемператураВлажностьДавлениеВетер, м/сВероятность осадков
    00:00Ясно и безоблачно+14°C66 %749 мм0.3 м/с2 %
    03:00Ясно и безоблачно+13°C75 %749 мм0.1 м/с2 %
    06:00Ясно и безоблачно+14°C75 %748 мм0.0 м/с2 %
    09:00Ясно и безоблачно+23°C51 %749 мм0.1 м/с2 %
    12:00Практически безоблачно+26°C33 %748 мм0.9 м/с1 %
    15:00Практически безоблачно+26°C32 %747 мм1.4 м/с4 %
    18:00Облачно с прояснениями+26°C32 %746 мм0.7 м/с10 %
    21:00Практически безоблачно+20°C49 %746 мм0.0 м/с2 %
  • 30мая
    Четверг
    +13°
    +28°
    Облачно с прояснениями
    ВремяПогодаТемператураВлажностьДавлениеВетер, м/сВероятность осадков
    00:00Небольшая облачность+15°C65 %745 мм0.0 м/с2 %
    03:00Ясно и безоблачно+12°C76 %745 мм0.0 м/с2 %
    06:00Ясно и безоблачно+15°C75 %745 мм0.0 м/с2 %
    09:00Практически безоблачно+24°C49 %746 мм0.7 м/с2 %
    12:00Облачно с прояснениями+27°C35 %745 мм2.5 м/с7 %
    15:00Облачно с прояснениями+27°C33 %745 мм1.7 м/с13 %
    18:00Небольшая облачность+28°C30 %744 мм1.2 м/с14 %
    21:00Ясно и безоблачно+21°C40 %745 мм0.7 м/с2 %
  • 31мая
    Пятница
    +13°
    +30°
    Практически безоблачно
    ВремяПогодаТемператураВлажностьДавлениеВетер, м/сВероятность осадков
    00:00Ясно и безоблачно+15°C54 %745 мм0.0 м/с2 %
    03:00Практически безоблачно+13°C59 %745 мм0.5 м/с2 %
    06:00Облачно с прояснениями+15°C61 %745 мм0.3 м/с2 %
    09:00Пасмурно, сплошная облачность+22°C47 %746 мм1.1 м/с3 %
    12:00Небольшая облачность+26°C33 %746 мм2.9 м/с13 %
    15:00Практически безоблачно+29°C29 %746 мм2.7 м/с26 %
    18:00Практически безоблачно+27°C40 %746 мм2.8 м/с40 %
    21:00Ясно и безоблачно+21°C67 %746 мм0.4 м/с9 %
Мы используем cookies
Соглашаюсь